Siteam Discoverer — ZCEP4 — position and weather

sailwx.info

Track history (hours):
 
Tides and Currents Weather Stations Pressure Air Temp Water Temp Dewpoint Dewpoint Depression Visibility Wind Speed Wind Dir Waves Ship Positions

Siteam Discoverer

Last reported at 2018-Feb-20 23:27 UTC. Time now 2018-Feb-20 23:49 UTC.
Position N 50°23' E 000°27'.

Length 183 m; draft 6.8 m.

Type: Ship. MMSI: 310707000.

Date/timePositionNaut miles runAvg speedWind from/ knotsBaromVisibWave heightAir tempDewpointWater temp
2018-Feb-20 23:27N 50°23' E 000°27'714.9
2018-Feb-20 23:00N 50°22' E 000°17'714.8
2018-Feb-20 22:30N 50°20' E 000°06'714.5
2018-Feb-20 22:00N 50°18' W 000°05'714.1
2018-Feb-20 21:30N 50°16' W 000°16'2613.7
2018-Feb-20 19:37N 50°11' W 000°55'412.9
2018-Feb-20 19:19N 50°10' W 001°01'1112.1
2018-Feb-20 18:24N 50°07' W 001°18'511.2
2018-Feb-20 17:59N 50°07' W 001°25'611.2
2018-Feb-20 17:30N 50°08' W 001°33'510.8
2018-Feb-20 17:00N 50°11' W 001°41'711.8
2018-Feb-20 16:22N 50°16' W 001°49'512.0
2018-Feb-20 15:57N 50°19' W 001°55'511.8
2018-Feb-20 15:30N 50°23' W 002°02'2012.5
2018-Feb-20 13:56N 50°36' W 002°24'0 0.6
2018-Feb-20 13:27N 50°36' W 002°24'0 0.1
2018-Feb-20 12:57N 50°36' W 002°24'0 0.0
2018-Feb-20 12:15N 50°36' W 002°24'0 0.1
2018-Feb-20 12:00N 50°36' W 002°24'0 0.0
2018-Feb-20 11:27N 50°36' W 002°24'0 0.0
2018-Feb-20 11:00N 50°36' W 002°24'0 0.1
2018-Feb-20 10:30N 50°36' W 002°24'0 0.1
2018-Feb-20 10:00N 50°36' W 002°24'0 0.1
2018-Feb-20 09:30N 50°36' W 002°24'0 0.0
2018-Feb-20 09:00N 50°36' W 002°24'0 0.1
2018-Feb-20 08:30N 50°36' W 002°24'0 0.1
2018-Feb-20 08:00N 50°36' W 002°24'0 0.1
2018-Feb-20 07:30N 50°36' W 002°24'0 0.0
2018-Feb-20 07:00N 50°36' W 002°24'0 0.0
2018-Feb-20 06:30N 50°36' W 002°24'0 0.0
2018-Feb-20 06:00N 50°36' W 002°24'0 0.0
2018-Feb-20 05:30N 50°36' W 002°24'0 0.0
2018-Feb-20 05:00N 50°36' W 002°24'0 0.0
2018-Feb-20 04:30N 50°36' W 002°24'0 0.0
2018-Feb-20 04:00N 50°36' W 002°24'0 0.0
2018-Feb-20 03:30N 50°36' W 002°24'0 0.0
2018-Feb-20 03:00N 50°36' W 002°24'0 0.0
2018-Feb-20 02:30N 50°36' W 002°24'0 0.0
2018-Feb-20 01:57N 50°36' W 002°24'0 0.0
2018-Feb-20 01:30N 50°36' W 002°24'0 0.0
2018-Feb-20 00:54N 50°36' W 002°24'0 0.0
2018-Feb-20 00:30N 50°36' W 002°24'0 0.1
2018-Feb-20 00:00N 50°36' W 002°24'0 0.9
2018-Feb-19 23:30N 50°36' W 002°23'2 4.7
2018-Feb-19 23:00N 50°34' W 002°21'3 6.4
2018-Feb-19 22:30N 50°32' W 002°18'2 3.0
2018-Feb-19 22:00N 50°30' W 002°18'4 7.7
2018-Feb-19 21:30N 50°27' W 002°22'815.8
2018-Feb-19 21:00N 50°24' W 002°33'815.6
2018-Feb-19 20:31N 50°21' W 002°44'815.3
2018-Feb-19 20:00N 50°18' W 002°55'715.1
2018-Feb-19 19:31N 50°14' W 003°05'714.8
2018-Feb-19 19:01N 50°10' W 003°15'714.4
2018-Feb-19 18:30N 50°04' W 003°21'713.9
2018-Feb-19 18:01N 49°58' W 003°26'713.5
2018-Feb-19 17:30N 49°52' W 003°32'713.1
2018-Feb-19 17:00N 49°46' W 003°35'712.8
2018-Feb-19 16:30N 49°41' W 003°41'813.1
2018-Feb-19 15:55N 49°35' W 003°49'2012.8
2018-Feb-19 14:19N 49°22' W 004°13'34310.8
2018-Feb-18 06:40N 43°42' W 003°14'312.9
2018-Feb-18 06:27N 43°39' W 003°13'612.7
2018-Feb-18 06:00N 43°34' W 003°10'612.7
2018-Feb-18 05:30N 43°28' W 003°07'511.0
2018-Feb-18 05:00N 43°23' W 003°05'1 2.0
2018-Feb-18 04:30N 43°22' W 003°06'0 0.0
2018-Feb-18 04:00N 43°22' W 003°06'0 0.0
2018-Feb-18 03:30N 43°22' W 003°06'0 0.0
2018-Feb-18 03:00N 43°22' W 003°06'0 0.0
2018-Feb-18 02:30N 43°22' W 003°06'0 0.0
2018-Feb-18 02:00N 43°22' W 003°06'0 0.0
2018-Feb-18 01:30N 43°22' W 003°06'0 0.0
2018-Feb-18 01:00N 43°22' W 003°06'0 0.0
2018-Feb-18 00:30N 43°22' W 003°06'0 0.0
2018-Feb-18 00:00N 43°22' W 003°06'0 0.0
2018-Feb-17 23:30N 43°22' W 003°06'0 0.0
2018-Feb-17 23:00N 43°22' W 003°06'0 0.0
2018-Feb-17 22:30N 43°22' W 003°06'0 0.0
2018-Feb-17 22:00N 43°22' W 003°06'0 0.0
2018-Feb-17 21:30N 43°22' W 003°06'0 0.0
2018-Feb-17 21:00N 43°22' W 003°06'0 0.0
2018-Feb-17 20:30N 43°22' W 003°06'0 0.0
2018-Feb-17 20:00N 43°22' W 003°06'0 0.0
2018-Feb-17 19:30N 43°22' W 003°06'0 0.0
2018-Feb-17 19:00N 43°22' W 003°06'0 0.0
2018-Feb-17 18:30N 43°22' W 003°06'0 0.0
2018-Feb-17 18:00N 43°22' W 003°06'0 0.0
2018-Feb-17 17:30N 43°22' W 003°06'0 0.0
2018-Feb-17 17:00N 43°22' W 003°06'0 0.0
2018-Feb-17 16:30N 43°22' W 003°06'0 0.0
2018-Feb-17 16:00N 43°22' W 003°06'0 0.0
2018-Feb-17 15:30N 43°22' W 003°06'0 0.0
2018-Feb-17 15:00N 43°22' W 003°06'0 0.0
2018-Feb-17 14:30N 43°22' W 003°06'0 0.0
2018-Feb-17 14:00N 43°22' W 003°06'0 0.0
2018-Feb-17 13:31N 43°22' W 003°06'1 2.5
2018-Feb-17 13:01N 43°23' W 003°05'4 7.3
2018-Feb-17 12:31N 43°27' W 003°05'3 5.4
2018-Feb-17 12:01N 43°28' W 003°02'1 2.1
2018-Feb-17 11:30N 43°27' W 003°00'1 1.8
2018-Feb-17 10:58N 43°28' W 003°01'1 1.8
2018-Feb-17 10:29N 43°29' W 003°01'2 3.4
2018-Feb-17 09:59N 43°31' W 003°00'2 5.0
2018-Feb-17 09:31N 43°33' W 003°01'2 3.7
2018-Feb-17 09:00N 43°35' W 003°03'1 2.8
2018-Feb-17 08:30N 43°36' W 003°03'2 3.9
2018-Feb-17 08:00N 43°37' W 003°05'3 5.5
2018-Feb-17 07:30N 43°39' W 003°08'3 4.5
2018-Feb-17 06:48N 43°42' W 003°10'4 2.8
2018-Feb-17 05:20N 43°38' W 003°08'2 5.5
2018-Feb-17 05:00N 43°36' W 003°07'1 2.4
2018-Feb-17 04:31N 43°38' W 003°07'2 4.8
2018-Feb-17 04:00N 43°40' W 003°09'3 5.4
2018-Feb-17 03:27N 43°42' W 003°11'2 5.0
2018-Feb-17 03:00N 43°45' W 003°11'2 4.9
2018-Feb-17 02:31N 43°47' W 003°12'4 7.1
2018-Feb-17 02:00N 43°50' W 003°14'2 4.1
2018-Feb-17 01:31N 43°52' W 003°14'1 2.4
2018-Feb-17 01:00N 43°51' W 003°13'2 2.8
2018-Feb-17 00:23N 43°50' W 003°13'1 3.5
2018-Feb-17 00:00N 43°48' W 003°12'2 2.7
2018-Feb-16 23:27N 43°47' W 003°12'2 4.3
2018-Feb-16 23:00N 43°45' W 003°11'4 5.2
2018-Feb-16 22:20N 43°42' W 003°08'2 2.8
2018-Feb-16 21:37N 43°41' W 003°11'2 2.1
2018-Feb-16 20:44N 43°43' W 003°11'0 1.5
2018-Feb-16 20:30N 43°44' W 003°12'1 1.4
2018-Feb-16 20:00N 43°44' W 003°12'1 1.9
2018-Feb-16 19:30N 43°45' W 003°12'1 1.5
2018-Feb-16 18:58N 43°46' W 003°12'0 1.0
2018-Feb-16 18:31N 43°46' W 003°12'1 1.1
2018-Feb-16 18:01N 43°47' W 003°13'1 1.0
2018-Feb-16 17:30N 43°47' W 003°13'1 1.1
2018-Feb-16 17:01N 43°48' W 003°13'1 1.3
2018-Feb-16 16:30N 43°48' W 003°14'1 2.1
2018-Feb-16 16:00N 43°49' W 003°15'1 2.5
2018-Feb-16 15:30N 43°50' W 003°16'0 1.0
2018-Feb-16 15:00N 43°51' W 003°16'1 1.1
2018-Feb-16 14:31N 43°51' W 003°16'1 1.1
2018-Feb-16 13:59N 43°52' W 003°17'11 2.2
2018-Feb-16 08:48N 43°41' W 003°10'1 4.5
2018-Feb-16 08:29N 43°40' W 003°08'2 4.6
2018-Feb-16 08:00N 43°42' W 003°10'2 4.6
2018-Feb-16 07:30N 43°45' W 003°11'3 5.1
2018-Feb-16 07:00N 43°47' W 003°12'3 5.2
2018-Feb-16 06:29N 43°49' W 003°14'4 5.3
2018-Feb-16 05:47N 43°52' W 003°17'2 5.4
2018-Feb-16 05:30N 43°54' W 003°18'13 2.6
2018-Feb-16 00:35N 43°41' W 003°13'0 0.9
2018-Feb-16 00:26N 43°41' W 003°13'1 1.6
2018-Feb-15 23:57N 43°41' W 003°13'2 3.7
2018-Feb-15 23:30N 43°39' W 003°13'0 0.9
2018-Feb-15 23:00N 43°39' W 003°14'3 4.7
2018-Feb-15 22:22N 43°36' W 003°11'3 8.7
2018-Feb-15 22:00N 43°34' W 003°09'4 8.7
2018-Feb-15 21:30N 43°30' W 003°06'5 9.2
2018-Feb-15 21:01N 43°25' W 003°05'4 6.7
2018-Feb-15 20:28N 43°22' W 003°06'0 0.0
2018-Feb-15 19:58N 43°22' W 003°06'0 0.0
2018-Feb-15 19:28N 43°22' W 003°06'0 0.0
2018-Feb-15 18:58N 43°22' W 003°06'0 0.0
2018-Feb-15 18:22N 43°22' W 003°06'0 0.0
2018-Feb-15 17:58N 43°22' W 003°06'0 0.0
2018-Feb-15 17:28N 43°22' W 003°06'0 0.0
2018-Feb-15 16:58N 43°22' W 003°06'0 0.0
2018-Feb-15 16:22N 43°22' W 003°06'0 0.0
2018-Feb-15 15:58N 43°22' W 003°06'0 0.0
2018-Feb-15 15:19N 43°22' W 003°06'0 0.0
2018-Feb-15 14:58N 43°22' W 003°06'0 0.0
2018-Feb-15 14:01N 43°22' W 003°06'0 0.0
2018-Feb-15 13:55N 43°22' W 003°06'0 0.0
2018-Feb-15 13:28N 43°22' W 003°06'0 0.0
2018-Feb-15 12:55N 43°22' W 003°06'0 0.0
2018-Feb-15 12:25N 43°22' W 003°06'0 0.0
2018-Feb-15 11:58N 43°22' W 003°06'0 0.0
2018-Feb-15 11:28N 43°22' W 003°06'0 0.0
2018-Feb-15 10:58N 43°22' W 003°06'0 0.0
2018-Feb-15 10:13N 43°22' W 003°06'0 0.0
2018-Feb-15 09:49N 43°22' W 003°06'0 0.0
2018-Feb-15 09:22N 43°22' W 003°06'0 0.0
2018-Feb-15 08:46N 43°22' W 003°06'0 0.0
2018-Feb-15 08:28N 43°22' W 003°06'0 0.0
2018-Feb-15 07:58N 43°22' W 003°06'0 0.0
2018-Feb-15 07:28N 43°22' W 003°06'0 0.0
2018-Feb-15 06:58N 43°22' W 003°06'0 0.0
2018-Feb-15 06:19N 43°22' W 003°06'0 0.0
2018-Feb-15 05:52N 43°22' W 003°06'0 0.0
2018-Feb-15 05:22N 43°22' W 003°06'0 0.0
2018-Feb-15 04:58N 43°22' W 003°06'0 0.0
2018-Feb-15 04:22N 43°22' W 003°06'0 0.0
2018-Feb-15 03:55N 43°22' W 003°06'0 0.0
2018-Feb-15 03:28N 43°22' W 003°06'0 0.0
2018-Feb-15 02:55N 43°22' W 003°06'0 0.0
2018-Feb-15 02:25N 43°22' W 003°06'0 0.0
2018-Feb-15 01:52N 43°22' W 003°06'0 0.0
2018-Feb-15 01:28N 43°22' W 003°06'0 0.0
2018-Feb-15 00:52N 43°22' W 003°06'0 0.0
2018-Feb-15 00:28N 43°22' W 003°06'0 0.0
2018-Feb-14 23:55N 43°22' W 003°06'0 0.0
2018-Feb-14 23:28N 43°22' W 003°06'0 0.0
2018-Feb-14 22:58N 43°22' W 003°06'0 0.0
2018-Feb-14 22:28N 43°22' W 003°06'0 0.0
2018-Feb-14 21:58N 43°22' W 003°06'0 0.0
2018-Feb-14 21:19N 43°22' W 003°06'0 0.0
2018-Feb-14 20:58N 43°22' W 003°06'0 0.0
2018-Feb-14 20:28N 43°22' W 003°06'0 0.0
2018-Feb-14 19:58N 43°22' W 003°06'0 0.0
2018-Feb-14 19:22N 43°22' W 003°06'0 0.0
2018-Feb-14 18:58N 43°22' W 003°06'0 0.0
2018-Feb-14 18:28N 43°22' W 003°06'0 0.0
2018-Feb-14 17:58N 43°22' W 003°06'0 0.0
2018-Feb-14 17:28N 43°22' W 003°06'0 0.0
2018-Feb-14 16:58N 43°22' W 003°06'0 0.0
2018-Feb-14 16:28N 43°22' W 003°06'0 0.0
2018-Feb-14 15:58N 43°22' W 003°06'0 0.0
2018-Feb-14 15:30N 43°22' W 003°06'1 1.8
2018-Feb-14 15:00N 43°23' W 003°05'3 6.4
2018-Feb-14 14:31N 43°26' W 003°06'1 2.1
2018-Feb-14 14:00N 43°27' W 003°06'2 3.8
2018-Feb-14 13:31N 43°28' W 003°08'4 7.5
2018-Feb-14 13:00N 43°32' W 003°10'612.6
2018-Feb-14 12:30N 43°37' W 003°14'612.7
2018-Feb-14 12:00N 43°43' W 003°17'  
2018-Feb-11 13:56N 39°08' W 009°57'512.2
2018-Feb-11 13:30N 39°02' W 009°57'612.0
2018-Feb-11 13:00N 38°56' W 009°58'612.2
2018-Feb-11 12:30N 38°50' W 009°58'612.4
2018-Feb-11 12:00N 38°44' W 009°58'612.2
2018-Feb-11 11:31N 38°38' W 009°56'612.3
2018-Feb-11 11:00N 38°32' W 009°54'612.1
2018-Feb-11 10:30N 38°26' W 009°53'  
Track history (hours):
 
Tides and Currents Weather Stations Pressure Air Temp Water Temp Dewpoint Dewpoint Depression Visibility Wind Speed Wind Dir Waves Ship Positions

Siteam Discoverer

Last reported at 2018-Feb-20 23:27 UTC. Time now 2018-Feb-20 23:49 UTC.
Position N 50°23' E 000°27'.

Length 183 m; draft 6.8 m.

Type: Ship. MMSI: 310707000.

Date/timePositionNaut miles runAvg speedWind from/ knotsBaromVisibWave heightAir tempDewpointWater temp
2018-Feb-20 23:27N 50°23' E 000°27'714.9
2018-Feb-20 23:00N 50°22' E 000°17'714.8
2018-Feb-20 22:30N 50°20' E 000°06'714.5
2018-Feb-20 22:00N 50°18' W 000°05'714.1
2018-Feb-20 21:30N 50°16' W 000°16'2613.7
2018-Feb-20 19:37N 50°11' W 000°55'412.9
2018-Feb-20 19:19N 50°10' W 001°01'1112.1
2018-Feb-20 18:24N 50°07' W 001°18'511.2
2018-Feb-20 17:59N 50°07' W 001°25'611.2
2018-Feb-20 17:30N 50°08' W 001°33'510.8
2018-Feb-20 17:00N 50°11' W 001°41'711.8
2018-Feb-20 16:22N 50°16' W 001°49'512.0
2018-Feb-20 15:57N 50°19' W 001°55'511.8
2018-Feb-20 15:30N 50°23' W 002°02'2012.5
2018-Feb-20 13:56N 50°36' W 002°24'0 0.6
2018-Feb-20 13:27N 50°36' W 002°24'0 0.1
2018-Feb-20 12:57N 50°36' W 002°24'0 0.0
2018-Feb-20 12:15N 50°36' W 002°24'0 0.1
2018-Feb-20 12:00N 50°36' W 002°24'0 0.0
2018-Feb-20 11:27N 50°36' W 002°24'0 0.0
2018-Feb-20 11:00N 50°36' W 002°24'0 0.1
2018-Feb-20 10:30N 50°36' W 002°24'0 0.1
2018-Feb-20 10:00N 50°36' W 002°24'0 0.1
2018-Feb-20 09:30N 50°36' W 002°24'0 0.0
2018-Feb-20 09:00N 50°36' W 002°24'0 0.1
2018-Feb-20 08:30N 50°36' W 002°24'0 0.1
2018-Feb-20 08:00N 50°36' W 002°24'0 0.1
2018-Feb-20 07:30N 50°36' W 002°24'0 0.0
2018-Feb-20 07:00N 50°36' W 002°24'0 0.0
2018-Feb-20 06:30N 50°36' W 002°24'0 0.0
2018-Feb-20 06:00N 50°36' W 002°24'0 0.0
2018-Feb-20 05:30N 50°36' W 002°24'0 0.0
2018-Feb-20 05:00N 50°36' W 002°24'0 0.0
2018-Feb-20 04:30N 50°36' W 002°24'0 0.0
2018-Feb-20 04:00N 50°36' W 002°24'0 0.0
2018-Feb-20 03:30N 50°36' W 002°24'0 0.0
2018-Feb-20 03:00N 50°36' W 002°24'0 0.0
2018-Feb-20 02:30N 50°36' W 002°24'0 0.0
2018-Feb-20 01:57N 50°36' W 002°24'0 0.0
2018-Feb-20 01:30N 50°36' W 002°24'0 0.0
2018-Feb-20 00:54N 50°36' W 002°24'0 0.0
2018-Feb-20 00:30N 50°36' W 002°24'0 0.1
2018-Feb-20 00:00N 50°36' W 002°24'0 0.9
2018-Feb-19 23:30N 50°36' W 002°23'2 4.7
2018-Feb-19 23:00N 50°34' W 002°21'3 6.4
2018-Feb-19 22:30N 50°32' W 002°18'2 3.0
2018-Feb-19 22:00N 50°30' W 002°18'4 7.7
2018-Feb-19 21:30N 50°27' W 002°22'815.8
2018-Feb-19 21:00N 50°24' W 002°33'815.6
2018-Feb-19 20:31N 50°21' W 002°44'815.3
2018-Feb-19 20:00N 50°18' W 002°55'715.1
2018-Feb-19 19:31N 50°14' W 003°05'714.8
2018-Feb-19 19:01N 50°10' W 003°15'714.4
2018-Feb-19 18:30N 50°04' W 003°21'713.9
2018-Feb-19 18:01N 49°58' W 003°26'713.5
2018-Feb-19 17:30N 49°52' W 003°32'713.1
2018-Feb-19 17:00N 49°46' W 003°35'712.8
2018-Feb-19 16:30N 49°41' W 003°41'813.1
2018-Feb-19 15:55N 49°35' W 003°49'2012.8
2018-Feb-19 14:19N 49°22' W 004°13'34310.8
2018-Feb-18 06:40N 43°42' W 003°14'312.9
2018-Feb-18 06:27N 43°39' W 003°13'612.7
2018-Feb-18 06:00N 43°34' W 003°10'612.7
2018-Feb-18 05:30N 43°28' W 003°07'511.0
2018-Feb-18 05:00N 43°23' W 003°05'1 2.0
2018-Feb-18 04:30N 43°22' W 003°06'0 0.0
2018-Feb-18 04:00N 43°22' W 003°06'0 0.0
2018-Feb-18 03:30N 43°22' W 003°06'0 0.0
2018-Feb-18 03:00N 43°22' W 003°06'0 0.0
2018-Feb-18 02:30N 43°22' W 003°06'0 0.0
2018-Feb-18 02:00N 43°22' W 003°06'0 0.0
2018-Feb-18 01:30N 43°22' W 003°06'0 0.0
2018-Feb-18 01:00N 43°22' W 003°06'0 0.0
2018-Feb-18 00:30N 43°22' W 003°06'0 0.0
2018-Feb-18 00:00N 43°22' W 003°06'0 0.0
2018-Feb-17 23:30N 43°22' W 003°06'0 0.0
2018-Feb-17 23:00N 43°22' W 003°06'0 0.0
2018-Feb-17 22:30N 43°22' W 003°06'0 0.0
2018-Feb-17 22:00N 43°22' W 003°06'0 0.0
2018-Feb-17 21:30N 43°22' W 003°06'0 0.0
2018-Feb-17 21:00N 43°22' W 003°06'0 0.0
2018-Feb-17 20:30N 43°22' W 003°06'0 0.0
2018-Feb-17 20:00N 43°22' W 003°06'0 0.0
2018-Feb-17 19:30N 43°22' W 003°06'0 0.0
2018-Feb-17 19:00N 43°22' W 003°06'0 0.0
2018-Feb-17 18:30N 43°22' W 003°06'0 0.0
2018-Feb-17 18:00N 43°22' W 003°06'0 0.0
2018-Feb-17 17:30N 43°22' W 003°06'0 0.0
2018-Feb-17 17:00N 43°22' W 003°06'0 0.0
2018-Feb-17 16:30N 43°22' W 003°06'0 0.0
2018-Feb-17 16:00N 43°22' W 003°06'0 0.0
2018-Feb-17 15:30N 43°22' W 003°06'0 0.0
2018-Feb-17 15:00N 43°22' W 003°06'0 0.0
2018-Feb-17 14:30N 43°22' W 003°06'0 0.0
2018-Feb-17 14:00N 43°22' W 003°06'0 0.0
2018-Feb-17 13:31N 43°22' W 003°06'1 2.5
2018-Feb-17 13:01N 43°23' W 003°05'4 7.3
2018-Feb-17 12:31N 43°27' W 003°05'3 5.4
2018-Feb-17 12:01N 43°28' W 003°02'1 2.1
2018-Feb-17 11:30N 43°27' W 003°00'1 1.8
2018-Feb-17 10:58N 43°28' W 003°01'1 1.8
2018-Feb-17 10:29N 43°29' W 003°01'2 3.4
2018-Feb-17 09:59N 43°31' W 003°00'2 5.0
2018-Feb-17 09:31N 43°33' W 003°01'2 3.7
2018-Feb-17 09:00N 43°35' W 003°03'1 2.8
2018-Feb-17 08:30N 43°36' W 003°03'2 3.9
2018-Feb-17 08:00N 43°37' W 003°05'3 5.5
2018-Feb-17 07:30N 43°39' W 003°08'3 4.5
2018-Feb-17 06:48N 43°42' W 003°10'4 2.8
2018-Feb-17 05:20N 43°38' W 003°08'2 5.5
2018-Feb-17 05:00N 43°36' W 003°07'1 2.4
2018-Feb-17 04:31N 43°38' W 003°07'2 4.8
2018-Feb-17 04:00N 43°40' W 003°09'3 5.4
2018-Feb-17 03:27N 43°42' W 003°11'2 5.0
2018-Feb-17 03:00N 43°45' W 003°11'2 4.9
2018-Feb-17 02:31N 43°47' W 003°12'4 7.1
2018-Feb-17 02:00N 43°50' W 003°14'2 4.1
2018-Feb-17 01:31N 43°52' W 003°14'1 2.4
2018-Feb-17 01:00N 43°51' W 003°13'2 2.8
2018-Feb-17 00:23N 43°50' W 003°13'1 3.5
2018-Feb-17 00:00N 43°48' W 003°12'2 2.7
2018-Feb-16 23:27N 43°47' W 003°12'2 4.3
2018-Feb-16 23:00N 43°45' W 003°11'4 5.2
2018-Feb-16 22:20N 43°42' W 003°08'2 2.8
2018-Feb-16 21:37N 43°41' W 003°11'2 2.1
2018-Feb-16 20:44N 43°43' W 003°11'0 1.5
2018-Feb-16 20:30N 43°44' W 003°12'1 1.4
2018-Feb-16 20:00N 43°44' W 003°12'1 1.9
2018-Feb-16 19:30N 43°45' W 003°12'1 1.5
2018-Feb-16 18:58N 43°46' W 003°12'0 1.0
2018-Feb-16 18:31N 43°46' W 003°12'1 1.1
2018-Feb-16 18:01N 43°47' W 003°13'1 1.0
2018-Feb-16 17:30N 43°47' W 003°13'1 1.1
2018-Feb-16 17:01N 43°48' W 003°13'1 1.3
2018-Feb-16 16:30N 43°48' W 003°14'1 2.1
2018-Feb-16 16:00N 43°49' W 003°15'1 2.5
2018-Feb-16 15:30N 43°50' W 003°16'0 1.0
2018-Feb-16 15:00N 43°51' W 003°16'1 1.1
2018-Feb-16 14:31N 43°51' W 003°16'1 1.1
2018-Feb-16 13:59N 43°52' W 003°17'11 2.2
2018-Feb-16 08:48N 43°41' W 003°10'1 4.5
2018-Feb-16 08:29N 43°40' W 003°08'2 4.6
2018-Feb-16 08:00N 43°42' W 003°10'2 4.6
2018-Feb-16 07:30N 43°45' W 003°11'3 5.1
2018-Feb-16 07:00N 43°47' W 003°12'3 5.2
2018-Feb-16 06:29N 43°49' W 003°14'4 5.3
2018-Feb-16 05:47N 43°52' W 003°17'2 5.4
2018-Feb-16 05:30N 43°54' W 003°18'13 2.6
2018-Feb-16 00:35N 43°41' W 003°13'0 0.9
2018-Feb-16 00:26N 43°41' W 003°13'1 1.6
2018-Feb-15 23:57N 43°41' W 003°13'2 3.7
2018-Feb-15 23:30N 43°39' W 003°13'0 0.9
2018-Feb-15 23:00N 43°39' W 003°14'3 4.7
2018-Feb-15 22:22N 43°36' W 003°11'3 8.7
2018-Feb-15 22:00N 43°34' W 003°09'4 8.7
2018-Feb-15 21:30N 43°30' W 003°06'5 9.2
2018-Feb-15 21:01N 43°25' W 003°05'4 6.7
2018-Feb-15 20:28N 43°22' W 003°06'0 0.0
2018-Feb-15 19:58N 43°22' W 003°06'0 0.0
2018-Feb-15 19:28N 43°22' W 003°06'0 0.0
2018-Feb-15 18:58N 43°22' W 003°06'0 0.0
2018-Feb-15 18:22N 43°22' W 003°06'0 0.0
2018-Feb-15 17:58N 43°22' W 003°06'0 0.0
2018-Feb-15 17:28N 43°22' W 003°06'0 0.0
2018-Feb-15 16:58N 43°22' W 003°06'0 0.0
2018-Feb-15 16:22N 43°22' W 003°06'0 0.0
2018-Feb-15 15:58N 43°22' W 003°06'0 0.0
2018-Feb-15 15:19N 43°22' W 003°06'0 0.0
2018-Feb-15 14:58N 43°22' W 003°06'0 0.0
2018-Feb-15 14:01N 43°22' W 003°06'0 0.0
2018-Feb-15 13:55N 43°22' W 003°06'0 0.0
2018-Feb-15 13:28N 43°22' W 003°06'0 0.0
2018-Feb-15 12:55N 43°22' W 003°06'0 0.0
2018-Feb-15 12:25N 43°22' W 003°06'0 0.0
2018-Feb-15 11:58N 43°22' W 003°06'0 0.0
2018-Feb-15 11:28N 43°22' W 003°06'0 0.0
2018-Feb-15 10:58N 43°22' W 003°06'0 0.0
2018-Feb-15 10:13N 43°22' W 003°06'0 0.0
2018-Feb-15 09:49N 43°22' W 003°06'0 0.0
2018-Feb-15 09:22N 43°22' W 003°06'0 0.0
2018-Feb-15 08:46N 43°22' W 003°06'0 0.0
2018-Feb-15 08:28N 43°22' W 003°06'0 0.0
2018-Feb-15 07:58N 43°22' W 003°06'0 0.0
2018-Feb-15 07:28N 43°22' W 003°06'0 0.0
2018-Feb-15 06:58N 43°22' W 003°06'0 0.0
2018-Feb-15 06:19N 43°22' W 003°06'0 0.0
2018-Feb-15 05:52N 43°22' W 003°06'0 0.0
2018-Feb-15 05:22N 43°22' W 003°06'0 0.0
2018-Feb-15 04:58N 43°22' W 003°06'0 0.0
2018-Feb-15 04:22N 43°22' W 003°06'0 0.0
2018-Feb-15 03:55N 43°22' W 003°06'0 0.0
2018-Feb-15 03:28N 43°22' W 003°06'0 0.0
2018-Feb-15 02:55N 43°22' W 003°06'0 0.0
2018-Feb-15 02:25N 43°22' W 003°06'0 0.0
2018-Feb-15 01:52N 43°22' W 003°06'0 0.0
2018-Feb-15 01:28N 43°22' W 003°06'0 0.0
2018-Feb-15 00:52N 43°22' W 003°06'0 0.0
2018-Feb-15 00:28N 43°22' W 003°06'0 0.0
2018-Feb-14 23:55N 43°22' W 003°06'0 0.0
2018-Feb-14 23:28N 43°22' W 003°06'0 0.0
2018-Feb-14 22:58N 43°22' W 003°06'0 0.0
2018-Feb-14 22:28N 43°22' W 003°06'0 0.0
2018-Feb-14 21:58N 43°22' W 003°06'0 0.0
2018-Feb-14 21:19N 43°22' W 003°06'0 0.0
2018-Feb-14 20:58N 43°22' W 003°06'0 0.0
2018-Feb-14 20:28N 43°22' W 003°06'0 0.0
2018-Feb-14 19:58N 43°22' W 003°06'0 0.0
2018-Feb-14 19:22N 43°22' W 003°06'0 0.0
2018-Feb-14 18:58N 43°22' W 003°06'0 0.0
2018-Feb-14 18:28N 43°22' W 003°06'0 0.0
2018-Feb-14 17:58N 43°22' W 003°06'0 0.0
2018-Feb-14 17:28N 43°22' W 003°06'0 0.0
2018-Feb-14 16:58N 43°22' W 003°06'0 0.0
2018-Feb-14 16:28N 43°22' W 003°06'0 0.0
2018-Feb-14 15:58N 43°22' W 003°06'0 0.0
2018-Feb-14 15:30N 43°22' W 003°06'1 1.8
2018-Feb-14 15:00N 43°23' W 003°05'3 6.4
2018-Feb-14 14:31N 43°26' W 003°06'1 2.1
2018-Feb-14 14:00N 43°27' W 003°06'2 3.8
2018-Feb-14 13:31N 43°28' W 003°08'4 7.5
2018-Feb-14 13:00N 43°32' W 003°10'612.6
2018-Feb-14 12:30N 43°37' W 003°14'612.7
2018-Feb-14 12:00N 43°43' W 003°17'  
2018-Feb-11 13:56N 39°08' W 009°57'512.2
2018-Feb-11 13:30N 39°02' W 009°57'612.0
2018-Feb-11 13:00N 38°56' W 009°58'612.2
2018-Feb-11 12:30N 38°50' W 009°58'612.4
2018-Feb-11 12:00N 38°44' W 009°58'612.2
2018-Feb-11 11:31N 38°38' W 009°56'612.3
2018-Feb-11 11:00N 38°32' W 009°54'612.1
2018-Feb-11 10:30N 38°26' W 009°53'  

Dump ship's entire track history